Portada
METAR-TAF:

METAR-TAF

Aeroports :

Finkenwerder, Alemanya

latitud: 53-32N, longitud: 009-50E, altitud: 5 m

Observació

L'informe es va fer fa 31 minuts, a les 23:20 UTC
Vent 8 kt del Oest/Sud-Oest
Temperatura 2°C
Humitat 93%
Pressió 1001 hPa
Visibilitat 10 km o més

METAR: EDHI 262320Z AUTO 24008KT 9999 // FEW005/// BKN031/// BKN035/// 02/01 Q1001

Hora: 00:51 (23:51 UTC)

Pronòstic

L'informe es va fer fa 6 hores i 51 minuts, a les 17:00 UTC
Pronòstic vàlid del 26 a les 18 UTC al 26 a les 21 UTC
Vent 8 kt del Oest
Visibilitat 10 km o més
Cel ennuvolat a una alçada de 2500 ft

TAF: EDHI 261700Z 2618/2621 27008KT 9999 BKN025

Observacions i pronòstics meteorològics de més de 4000 aeroports (METAR i TAF).

Les estacions disponibles són els punts grocs i vermells al mapa.

Posi el ratolí al punt desitjat per veure el nom de l'estació.

Feu clic per veure les observacions i els pronòstics meteorològics.

Per canviar el mapa: feu clic els botons verds amb una creu de color negre per apropar; al botó verd amb un guió per allunyar la imatge; o en les fletxes verdes per a mapes adjacents.


METAR-TAF: